Terminal Aerodrome Forecast
Issued by NWS

Home | Current Version | Previous Version | Text Only | Print | Product List | Glossary On
Versions: 1 2 3 4 5 6 7 8 9 10 11 12 13
000
FTPA31 PHFO 301100
TAFJRF
TAF
PHJR 301120Z 3012/3112 VRB05KT P6SM FEW030 SCT045
     FM302100 06012G18KT P6SM FEW030 SCT045
     FM310400 VRB06KT P6SM FEW028 SCT045=

USA.gov is the U.S. government's official web portal to all federal, state and local government web resources and services.